createdAt,value
2022-08-26T00:01:04.709Z,100282.34
2022-08-26T00:04:23.825Z,100281.58
2022-08-26T00:07:15.203Z,100276.91
2022-08-26T00:11:02.081Z,100275.71
2022-08-26T00:14:17.230Z,100278.34
2022-08-26T00:17:04.335Z,100277.50
2022-08-26T00:19:56.808Z,100273.14
2022-08-26T00:22:48.520Z,100271.99
2022-08-26T00:25:21.703Z,100275.29
2022-08-26T00:28:00.748Z,100273.91
2022-08-26T00:30:58.123Z,100270.38
2022-08-26T00:33:32.571Z,100270.84
2022-08-26T00:37:01.635Z,100266.49
2022-08-26T00:40:12.902Z,100268.12
2022-08-26T00:42:48.164Z,100267.65
2022-08-26T00:45:19.636Z,100261.61
2022-08-26T00:48:03.750Z,100265.40
2022-08-26T00:50:39.162Z,100264.92
2022-08-26T00:53:26.037Z,100268.93
2022-08-26T00:56:30.836Z,100265.20
2022-08-26T00:59:05.366Z,100271.27
2022-08-26T01:01:41.160Z,100264.77
2022-08-26T01:04:12.513Z,100260.93
2022-08-26T01:06:44.421Z,100264.75
2022-08-26T01:09:18.300Z,100260.63
2022-08-26T01:11:55.962Z,100263.56
2022-08-26T01:14:30.537Z,100263.64
2022-08-26T01:17:05.591Z,100264.20
2022-08-26T01:19:49.531Z,100257.11
2022-08-26T01:22:52.371Z,100263.16
2022-08-26T01:25:23.835Z,100263.44
2022-08-26T01:28:00.358Z,100264.39
2022-08-26T01:30:32.145Z,100262.52
2022-08-26T01:33:13.448Z,100260.70
2022-08-26T01:35:45.463Z,100263.54
2022-08-26T01:38:19.292Z,100267.39
2022-08-26T01:40:52.543Z,100264.91
2022-08-26T01:43:29.361Z,100265.98
2022-08-26T01:46:01.427Z,100262.83
2022-08-26T01:48:40.023Z,100261.84
2022-08-26T01:51:11.815Z,100259.73
2022-08-26T01:53:46.110Z,100257.84
2022-08-26T01:56:21.209Z,100265.02
2022-08-26T01:58:58.391Z,100265.91
2022-08-26T02:01:32.435Z,100254.51
2022-08-26T02:04:56.770Z,100259.77
2022-08-26T02:08:12.584Z,100261.02
2022-08-26T02:11:20.646Z,100266.91
2022-08-26T02:14:33.823Z,100268.58
2022-08-26T02:17:11.636Z,100273.94
2022-08-26T02:20:18.146Z,100275.24
2022-08-26T02:23:29.827Z,100278.94
2022-08-26T02:26:06.256Z,100273.70
2022-08-26T02:28:55.638Z,100278.15
2022-08-26T02:31:47.021Z,100271.73
2022-08-26T02:34:22.476Z,100268.30
2022-08-26T02:36:53.023Z,100266.84
2022-08-26T02:39:30.921Z,100267.84
2022-08-26T02:42:22.209Z,100263.80
2022-08-26T02:44:56.285Z,100271.09
2022-08-26T02:47:35.094Z,100268.19
2022-08-26T02:50:09.839Z,100270.23
2022-08-26T02:52:54.022Z,100271.61
2022-08-26T02:55:53.357Z,100269.15
2022-08-26T02:58:43.980Z,100273.14
2022-08-26T03:01:35.876Z,100271.42
2022-08-26T03:04:33.468Z,100268.52
2022-08-26T03:07:28.805Z,100268.94
2022-08-26T03:10:46.699Z,100264.64
2022-08-26T03:13:32.385Z,100258.75
2022-08-26T03:16:32.344Z,100258.82
2022-08-26T03:19:32.639Z,100255.91
2022-08-26T03:22:31.170Z,100261.58
2022-08-26T03:25:33.303Z,100261.06
2022-08-26T03:28:28.691Z,100263.12
2022-08-26T03:31:30.544Z,100268.59
2022-08-26T03:34:24.204Z,100267.33
2022-08-26T03:36:58.374Z,100267.12
2022-08-26T03:39:31.633Z,100264.48
2022-08-26T03:42:05.838Z,100263.66
2022-08-26T03:44:42.735Z,100260.17
2022-08-26T03:47:17.656Z,100258.00
2022-08-26T03:49:49.116Z,100256.65
2022-08-26T03:52:23.098Z,100259.86
2022-08-26T03:54:56.260Z,100255.73
2022-08-26T03:57:31.761Z,100259.23
2022-08-26T04:00:07.111Z,100263.84
2022-08-26T04:02:40.988Z,100254.00
2022-08-26T04:05:12.677Z,100257.75
2022-08-26T04:07:48.544Z,100251.80
2022-08-26T04:10:28.568Z,100252.46
2022-08-26T04:13:01.301Z,100249.75
2022-08-26T04:15:33.453Z,100248.98
2022-08-26T04:18:04.925Z,100255.04
2022-08-26T04:20:35.185Z,100256.48
2022-08-26T04:23:06.331Z,100248.37
2022-08-26T04:25:40.528Z,100252.95
2022-08-26T04:28:14.490Z,100255.32
2022-08-26T04:31:05.719Z,100257.20
2022-08-26T04:33:57.820Z,100252.11
2022-08-26T04:36:37.449Z,100254.48
2022-08-26T04:40:25.935Z,100254.80
2022-08-26T04:43:21.726Z,100249.95
2022-08-26T04:46:07.396Z,100255.48
2022-08-26T04:48:38.341Z,100256.97
2022-08-26T04:51:11.843Z,100255.15
2022-08-26T04:54:11.876Z,100253.36
2022-08-26T04:57:24.868Z,100260.48
2022-08-26T05:00:18.364Z,100261.20
2022-08-26T05:02:50.036Z,100264.02
2022-08-26T05:05:24.896Z,100263.87
2022-08-26T05:08:17.200Z,100260.76
2022-08-26T05:11:05.729Z,100261.66
2022-08-26T05:14:17.316Z,100259.64
2022-08-26T05:16:54.326Z,100256.61
2022-08-26T05:19:27.953Z,100256.81
2022-08-26T05:22:09.517Z,100262.39
2022-08-26T05:24:43.874Z,100262.27
2022-08-26T05:27:22.341Z,100261.58
2022-08-26T05:29:58.658Z,100258.30
2022-08-26T05:32:47.833Z,100258.96
2022-08-26T05:35:24.045Z,100255.92
2022-08-26T05:38:54.448Z,100257.70
2022-08-26T05:41:34.614Z,100264.45
2022-08-26T05:44:14.419Z,100261.50
2022-08-26T05:47:45.362Z,100258.27
2022-08-26T05:51:48.104Z,100257.90
2022-08-26T05:55:36.354Z,100258.02
2022-08-26T05:58:10.417Z,100259.40
2022-08-26T06:00:44.498Z,100256.90
2022-08-26T06:03:17.541Z,100253.98
2022-08-26T06:06:08.368Z,100249.67
2022-08-26T06:08:44.377Z,100252.81
2022-08-26T06:11:58.992Z,100251.77
2022-08-26T06:14:32.919Z,100248.80
2022-08-26T06:17:12.082Z,100247.83
2022-08-26T06:19:51.374Z,100249.67
2022-08-26T06:22:56.255Z,100248.67
2022-08-26T06:25:59.185Z,100248.39
2022-08-26T06:29:24.305Z,100254.73
2022-08-26T06:31:59.043Z,100257.55
2022-08-26T06:35:25.876Z,100257.39
2022-08-26T06:39:01.722Z,100253.45
2022-08-26T06:42:35.110Z,100254.44
2022-08-26T06:49:13.479Z,100259.00
2022-08-26T06:52:11.171Z,100258.63
2022-08-26T06:55:01.229Z,100260.71
2022-08-26T11:20:30.328Z,100164.36
2022-08-26T19:00:22.373Z,99986.73
2022-08-26T19:03:28.673Z,99985.58
2022-08-26T19:07:31.603Z,99981.09
2022-08-26T19:17:42.246Z,99977.31
2022-08-26T22:21:21.808Z,99993.98
2022-08-26T22:23:58.087Z,99988.84
2022-08-26T22:26:32.903Z,99984.11
2022-08-26T22:29:03.777Z,99989.08
